sensor_id;sensor_type;location;lat;lon;timestamp;pressure;altitude;pressure_sealevel;temperature;humidity
21594;BME280;10959;51.328;7.322;2022-08-20T00:02:20;98714.50;;;23.68;69.77
21594;BME280;10959;51.328;7.322;2022-08-20T00:04:47;98721.72;;;23.69;69.80
21594;BME280;10959;51.328;7.322;2022-08-20T00:07:14;98715.91;;;23.72;69.82
21594;BME280;10959;51.328;7.322;2022-08-20T00:09:43;98721.41;;;23.72;70.44
21594;BME280;10959;51.328;7.322;2022-08-20T00:12:11;98720.88;;;23.68;70.66
21594;BME280;10959;51.328;7.322;2022-08-20T00:14:38;98716.41;;;23.67;70.75
21594;BME280;10959;51.328;7.322;2022-08-20T00:17:05;98719.81;;;23.61;70.64
21594;BME280;10959;51.328;7.322;2022-08-20T00:19:32;98718.63;;;23.63;71.43
21594;BME280;10959;51.328;7.322;2022-08-20T00:21:59;98729.91;;;23.60;72.01
21594;BME280;10959;51.328;7.322;2022-08-20T00:24:25;98722.81;;;23.50;72.28
21594;BME280;10959;51.328;7.322;2022-08-20T00:26:53;98722.91;;;23.40;72.70
21594;BME280;10959;51.328;7.322;2022-08-20T00:29:20;98718.06;;;23.34;72.76
21594;BME280;10959;51.328;7.322;2022-08-20T00:31:46;98727.66;;;23.29;73.07
21594;BME280;10959;51.328;7.322;2022-08-20T00:34:13;98724.75;;;23.31;73.30
21594;BME280;10959;51.328;7.322;2022-08-20T00:36:39;98719.97;;;23.15;73.61
21594;BME280;10959;51.328;7.322;2022-08-20T00:39:06;98726.69;;;23.03;73.92
21594;BME280;10959;51.328;7.322;2022-08-20T00:41:32;98722.22;;;23.02;73.88
21594;BME280;10959;51.328;7.322;2022-08-20T00:44:09;98723.41;;;22.81;74.44
21594;BME280;10959;51.328;7.322;2022-08-20T00:46:38;98729.03;;;22.98;73.69
21594;BME280;10959;51.328;7.322;2022-08-20T00:49:16;98726.00;;;23.01;73.93
21594;BME280;10959;51.328;7.322;2022-08-20T00:51:46;98727.34;;;22.97;74.80
21594;BME280;10959;51.328;7.322;2022-08-20T00:54:16;98734.47;;;22.89;75.52
21594;BME280;10959;51.328;7.322;2022-08-20T00:56:46;98733.03;;;22.67;76.92
21594;BME280;10959;51.328;7.322;2022-08-20T01:00:06;98730.09;;;22.33;77.77
21594;BME280;10959;51.328;7.322;2022-08-20T01:02:50;98738.44;;;22.41;78.24
21594;BME280;10959;51.328;7.322;2022-08-20T01:05:25;98732.94;;;22.41;78.09
21594;BME280;10959;51.328;7.322;2022-08-20T01:07:53;98736.38;;;22.43;77.85
21594;BME280;10959;51.328;7.322;2022-08-20T01:10:37;98741.56;;;22.46;77.80
21594;BME280;10959;51.328;7.322;2022-08-20T01:13:21;98736.06;;;22.46;77.70
21594;BME280;10959;51.328;7.322;2022-08-20T01:15:52;98736.06;;;22.46;77.52
21594;BME280;10959;51.328;7.322;2022-08-20T01:18:24;98745.03;;;22.48;77.90
21594;BME280;10959;51.328;7.322;2022-08-20T01:20:53;98746.81;;;22.39;78.02
21594;BME280;10959;51.328;7.322;2022-08-20T01:23:24;98752.03;;;22.33;78.37
21594;BME280;10959;51.328;7.322;2022-08-20T01:25:59;98744.09;;;22.30;78.33
21594;BME280;10959;51.328;7.322;2022-08-20T01:28:32;98745.09;;;22.29;78.85
21594;BME280;10959;51.328;7.322;2022-08-20T01:31:00;98743.50;;;22.26;78.93
21594;BME280;10959;51.328;7.322;2022-08-20T01:33:26;98741.66;;;22.26;78.49
21594;BME280;10959;51.328;7.322;2022-08-20T01:35:53;98740.78;;;22.26;78.38
21594;BME280;10959;51.328;7.322;2022-08-20T01:38:20;98741.94;;;22.23;79.17
21594;BME280;10959;51.328;7.322;2022-08-20T01:40:59;98747.22;;;22.07;79.44
21594;BME280;10959;51.328;7.322;2022-08-20T01:43:29;98739.81;;;22.17;79.18
21594;BME280;10959;51.328;7.322;2022-08-20T01:45:56;98743.13;;;22.21;79.23
21594;BME280;10959;51.328;7.322;2022-08-20T01:48:22;98737.06;;;22.17;79.38
21594;BME280;10959;51.328;7.322;2022-08-20T01:50:54;98750.38;;;22.12;79.22
21594;BME280;10959;51.328;7.322;2022-08-20T01:53:30;98740.81;;;22.16;79.28
21594;BME280;10959;51.328;7.322;2022-08-20T01:55:59;98744.28;;;22.18;79.53
21594;BME280;10959;51.328;7.322;2022-08-20T01:58:26;98739.41;;;22.12;79.73
21594;BME280;10959;51.328;7.322;2022-08-20T02:00:54;98736.38;;;22.15;79.54
21594;BME280;10959;51.328;7.322;2022-08-20T02:03:20;98741.44;;;22.10;79.73
21594;BME280;10959;51.328;7.322;2022-08-20T02:05:47;98738.22;;;22.15;79.87
21594;BME280;10959;51.328;7.322;2022-08-20T02:08:13;98745.91;;;22.11;80.17
21594;BME280;10959;51.328;7.322;2022-08-20T02:10:40;98744.47;;;22.07;80.18
21594;BME280;10959;51.328;7.322;2022-08-20T02:13:12;98740.00;;;22.06;80.04
21594;BME280;10959;51.328;7.322;2022-08-20T02:15:39;98743.16;;;22.11;79.64
21594;BME280;10959;51.328;7.322;2022-08-20T02:18:07;98745.13;;;22.19;79.36
21594;BME280;10959;51.328;7.322;2022-08-20T02:20:35;98751.19;;;22.22;79.30
21594;BME280;10959;51.328;7.322;2022-08-20T02:23:03;98752.63;;;22.26;79.51
21594;BME280;10959;51.328;7.322;2022-08-20T02:25:32;98753.31;;;22.29;78.87
21594;BME280;10959;51.328;7.322;2022-08-20T02:28:00;98747.13;;;22.26;78.83
21594;BME280;10959;51.328;7.322;2022-08-20T02:30:31;98751.75;;;22.26;78.58
21594;BME280;10959;51.328;7.322;2022-08-20T02:32:59;98751.31;;;22.31;78.37
21594;BME280;10959;51.328;7.322;2022-08-20T02:35:26;98741.34;;;22.30;78.65
21594;BME280;10959;51.328;7.322;2022-08-20T02:37:53;98746.56;;;22.33;78.37
21594;BME280;10959;51.328;7.322;2022-08-20T02:40:23;98741.66;;;22.26;78.29
21594;BME280;10959;51.328;7.322;2022-08-20T02:42:50;98747.72;;;22.20;79.07
21594;BME280;10959;51.328;7.322;2022-08-20T02:45:17;98743.97;;;22.21;78.81
21594;BME280;10959;51.328;7.322;2022-08-20T02:47:45;98746.25;;;22.26;78.50
21594;BME280;10959;51.328;7.322;2022-08-20T02:50:14;98742.19;;;22.30;78.14
21594;BME280;10959;51.328;7.322;2022-08-20T02:52:42;98754.91;;;22.31;78.40
21594;BME280;10959;51.328;7.322;2022-08-20T02:55:09;98753.78;;;22.34;78.27
21594;BME280;10959;51.328;7.322;2022-08-20T02:57:37;98752.72;;;22.35;78.30
21594;BME280;10959;51.328;7.322;2022-08-20T03:00:05;98754.19;;;22.29;78.85
21594;BME280;10959;51.328;7.322;2022-08-20T03:02:32;98754.34;;;22.27;78.40
21594;BME280;10959;51.328;7.322;2022-08-20T03:05:00;98746.81;;;22.30;78.32
21594;BME280;10959;51.328;7.322;2022-08-20T03:07:26;98741.34;;;22.30;78.16
21594;BME280;10959;51.328;7.322;2022-08-20T03:09:53;98739.28;;;22.32;77.91
21594;BME280;10959;51.328;7.322;2022-08-20T03:12:19;98744.78;;;22.32;78.12
21594;BME280;10959;51.328;7.322;2022-08-20T03:14:46;98743.34;;;22.27;77.93
21594;BME280;10959;51.328;7.322;2022-08-20T03:17:13;98746.81;;;22.30;77.91
21594;BME280;10959;51.328;7.322;2022-08-20T03:19:40;98753.00;;;22.32;77.91
21594;BME280;10959;51.328;7.322;2022-08-20T03:22:08;98754.91;;;22.31;77.59
21594;BME280;10959;51.328;7.322;2022-08-20T03:24:35;98745.09;;;22.29;78.35
21594;BME280;10959;51.328;7.322;2022-08-20T03:27:01;98745.94;;;22.29;77.98
21594;BME280;10959;51.328;7.322;2022-08-20T03:29:28;98743.34;;;22.27;77.69
21594;BME280;10959;51.328;7.322;2022-08-20T03:31:54;98736.16;;;22.26;77.47
21594;BME280;10959;51.328;7.322;2022-08-20T03:34:22;98738.19;;;22.24;77.64
21594;BME280;10959;51.328;7.322;2022-08-20T03:36:48;98741.94;;;22.23;78.00
21594;BME280;10959;51.328;7.322;2022-08-20T03:39:16;98739.34;;;22.22;78.07
21594;BME280;10959;51.328;7.322;2022-08-20T03:41:42;98737.06;;;22.17;77.57
21594;BME280;10959;51.328;7.322;2022-08-20T03:44:09;98735.34;;;22.16;77.21
21594;BME280;10959;51.328;7.322;2022-08-20T03:46:35;98733.63;;;22.15;77.14
21594;BME280;10959;51.328;7.322;2022-08-20T03:49:03;98729.16;;;22.14;77.21
21594;BME280;10959;51.328;7.322;2022-08-20T03:51:30;98724.97;;;22.10;77.28
21594;BME280;10959;51.328;7.322;2022-08-20T03:53:57;98729.59;;;22.09;77.22
21594;BME280;10959;51.328;7.322;2022-08-20T03:56:26;98721.84;;;22.05;76.97
21594;BME280;10959;51.328;7.322;2022-08-20T03:58:53;98723.56;;;22.06;77.10
21594;BME280;10959;51.328;7.322;2022-08-20T04:01:19;98723.84;;;22.03;77.26
21594;BME280;10959;51.328;7.322;2022-08-20T04:03:46;98713.19;;;22.00;76.77
21594;BME280;10959;51.328;7.322;2022-08-20T04:06:12;98715.22;;;21.98;76.83
21594;BME280;10959;51.328;7.322;2022-08-20T04:08:39;98719.28;;;21.94;77.30
21594;BME280;10959;51.328;7.322;2022-08-20T04:11:06;98721.31;;;21.91;76.94
21594;BME280;10959;51.328;7.322;2022-08-20T04:13:34;98719.56;;;21.90;76.95
21594;BME280;10959;51.328;7.322;2022-08-20T04:16:01;98722.78;;;21.86;76.93
21594;BME280;10959;51.328;7.322;2022-08-20T04:18:33;98724.97;;;21.82;77.42
21594;BME280;10959;51.328;7.322;2022-08-20T04:21:02;98733.34;;;21.81;77.24
21594;BME280;10959;51.328;7.322;2022-08-20T04:23:29;98738.97;;;21.79;77.60
21594;BME280;10959;51.328;7.322;2022-08-20T04:25:56;98738.97;;;21.79;78.13
21594;BME280;10959;51.328;7.322;2022-08-20T04:28:24;98749.63;;;21.82;77.69
21594;BME280;10959;51.328;7.322;2022-08-20T04:30:53;98746.16;;;21.80;77.77
21594;BME280;10959;51.328;7.322;2022-08-20T04:33:21;98747.75;;;21.83;78.18
21594;BME280;10959;51.328;7.322;2022-08-20T04:35:49;98755.97;;;21.83;78.08
21594;BME280;10959;51.328;7.322;2022-08-20T04:38:17;98751.19;;;21.85;78.00
21594;BME280;10959;51.328;7.322;2022-08-20T04:40:44;98760.00;;;21.88;78.08
21594;BME280;10959;51.328;7.322;2022-08-20T04:43:24;98773.00;;;21.86;77.93
21594;BME280;10959;51.328;7.322;2022-08-20T04:45:52;98760.69;;;21.90;78.15
21594;BME280;10959;51.328;7.322;2022-08-20T04:48:22;98759.00;;;21.89;77.46
21594;BME280;10959;51.328;7.322;2022-08-20T04:50:50;98764.31;;;21.91;77.78
21594;BME280;10959;51.328;7.322;2022-08-20T04:53:19;98772.41;;;21.92;77.86
21594;BME280;10959;51.328;7.322;2022-08-20T04:55:46;98785.09;;;21.94;78.12
21594;BME280;10959;51.328;7.322;2022-08-20T04:58:15;98779.63;;;21.94;78.24
21594;BME280;10959;51.328;7.322;2022-08-20T05:00:45;98781.00;;;21.98;78.27
21594;BME280;10959;51.328;7.322;2022-08-20T05:03:14;98777.56;;;21.96;78.44
21594;BME280;10959;51.328;7.322;2022-08-20T05:05:40;98771.47;;;22.02;78.31
21594;BME280;10959;51.328;7.322;2022-08-20T05:08:08;98776.69;;;22.05;78.38
21594;BME280;10959;51.328;7.322;2022-08-20T05:10:35;98786.63;;;22.06;78.01
21594;BME280;10959;51.328;7.322;2022-08-20T05:13:02;98785.31;;;22.10;78.67
21594;BME280;10959;51.328;7.322;2022-08-20T05:15:29;98776.78;;;22.13;79.00
21594;BME280;10959;51.328;7.322;2022-08-20T05:17:57;98783.69;;;22.17;78.75
21594;BME280;10959;51.328;7.322;2022-08-20T05:20:29;98783.69;;;22.17;78.60
21594;BME280;10959;51.328;7.322;2022-08-20T05:22:56;98787.88;;;22.21;78.36
21594;BME280;10959;51.328;7.322;2022-08-20T05:25:23;98782.38;;;22.21;78.30
21594;BME280;10959;51.328;7.322;2022-08-20T05:27:55;98789.28;;;22.25;77.88
21594;BME280;10959;51.328;7.322;2022-08-20T05:30:22;98781.06;;;22.25;78.00
21594;BME280;10959;51.328;7.322;2022-08-20T05:32:49;98780.06;;;22.26;78.17
21594;BME280;10959;51.328;7.322;2022-08-20T05:35:15;98787.25;;;22.27;78.57
21594;BME280;10959;51.328;7.322;2022-08-20T05:37:43;98776.00;;;22.31;78.55
21594;BME280;10959;51.328;7.322;2022-08-20T05:40:12;98781.50;;;22.31;78.99
21594;BME280;10959;51.328;7.322;2022-08-20T05:42:40;98784.22;;;22.31;78.71
21594;BME280;10959;51.328;7.322;2022-08-20T05:45:08;98790.72;;;22.30;78.87
21594;BME280;10959;51.328;7.322;2022-08-20T05:47:38;98785.81;;;22.23;78.67
21594;BME280;10959;51.328;7.322;2022-08-20T05:50:06;98796.53;;;22.26;78.82
21594;BME280;10959;51.328;7.322;2022-08-20T05:52:33;98797.09;;;22.20;79.06
21594;BME280;10959;51.328;7.322;2022-08-20T05:55:00;98805.50;;;22.09;80.16
21594;BME280;10959;51.328;7.322;2022-08-20T05:57:27;98800.34;;;21.96;80.65
21594;BME280;10959;51.328;7.322;2022-08-20T05:59:54;98799.06;;;21.90;80.82
21594;BME280;10959;51.328;7.322;2022-08-20T06:02:20;98796.63;;;21.87;80.90
21594;BME280;10959;51.328;7.322;2022-08-20T06:05:05;98796.94;;;21.84;81.02
21594;BME280;10959;51.328;7.322;2022-08-20T06:07:31;98803.84;;;21.88;81.14
21594;BME280;10959;51.328;7.322;2022-08-20T06:10:00;98796.94;;;21.84;80.60
21594;BME280;10959;51.328;7.322;2022-08-20T06:12:27;98793.06;;;21.77;80.13
21594;BME280;10959;51.328;7.322;2022-08-20T06:14:53;98798.56;;;21.77;80.37
21594;BME280;10959;51.328;7.322;2022-08-20T06:17:20;98795.81;;;21.77;79.46
21594;BME280;10959;51.328;7.322;2022-08-20T06:19:47;98791.31;;;21.76;79.90
21594;BME280;10959;51.328;7.322;2022-08-20T06:22:14;98792.38;;;21.75;79.62
21594;BME280;10959;51.328;7.322;2022-08-20T06:24:40;98798.84;;;21.74;79.40
21594;BME280;10959;51.328;7.322;2022-08-20T06:27:12;98796.97;;;21.65;79.02
21594;BME280;10959;51.328;7.322;2022-08-20T06:29:40;98800.44;;;21.67;79.21
21594;BME280;10959;51.328;7.322;2022-08-20T06:32:07;98806.53;;;21.61;79.10
21594;BME280;10959;51.328;7.322;2022-08-20T06:34:35;98804.78;;;21.60;79.46
21594;BME280;10959;51.328;7.322;2022-08-20T06:37:01;98804.34;;;21.64;79.51
21594;BME280;10959;51.328;7.322;2022-08-20T06:39:28;98807.38;;;21.71;78.68
21594;BME280;10959;51.328;7.322;2022-08-20T06:41:55;98803.03;;;21.78;78.53
21594;BME280;10959;51.328;7.322;2022-08-20T06:44:24;98806.16;;;21.83;78.45
21594;BME280;10959;51.328;7.322;2022-08-20T06:46:52;98810.66;;;21.84;78.53
21594;BME280;10959;51.328;7.322;2022-08-20T06:49:20;98803.56;;;21.91;78.73
21594;BME280;10959;51.328;7.322;2022-08-20T06:51:47;98810.16;;;21.99;78.25
21594;BME280;10959;51.328;7.322;2022-08-20T06:54:13;98810.16;;;21.99;78.67
21594;BME280;10959;51.328;7.322;2022-08-20T06:56:41;98804.69;;;21.99;78.42
21594;BME280;10959;51.328;7.322;2022-08-20T06:59:08;98805.00;;;21.96;78.08
21594;BME280;10959;51.328;7.322;2022-08-20T07:01:37;98815.34;;;22.02;78.02
21594;BME280;10959;51.328;7.322;2022-08-20T07:04:03;98806.13;;;22.03;77.96
21594;BME280;10959;51.328;7.322;2022-08-20T07:06:31;98813.34;;;22.04;77.97
21594;BME280;10959;51.328;7.322;2022-08-20T07:08:58;98815.09;;;22.05;78.15
21594;BME280;10959;51.328;7.322;2022-08-20T07:11:25;98817.94;;;22.03;77.67
21594;BME280;10959;51.328;7.322;2022-08-20T07:13:52;98818.22;;;22.10;77.04
21594;BME280;10959;51.328;7.322;2022-08-20T07:16:18;98817.53;;;22.08;77.16
21594;BME280;10959;51.328;7.322;2022-08-20T07:18:46;98813.75;;;22.09;77.25
21594;BME280;10959;51.328;7.322;2022-08-20T07:21:13;98822.84;;;22.09;77.98
21594;BME280;10959;51.328;7.322;2022-08-20T07:23:41;98824.28;;;22.14;78.20
21594;BME280;10959;51.328;7.322;2022-08-20T07:26:08;98827.19;;;22.12;78.49
21594;BME280;10959;51.328;7.322;2022-08-20T07:28:34;98821.38;;;22.15;78.40
21594;BME280;10959;51.328;7.322;2022-08-20T07:31:01;98825.72;;;22.18;78.62
21594;BME280;10959;51.328;7.322;2022-08-20T07:33:46;98828.59;;;22.16;78.31
21594;BME280;10959;51.328;7.322;2022-08-20T07:36:13;98833.78;;;22.19;78.80
21594;BME280;10959;51.328;7.322;2022-08-20T07:38:39;98837.25;;;22.21;78.75
21594;BME280;10959;51.328;7.322;2022-08-20T07:41:11;98831.44;;;22.24;78.82
21594;BME280;10959;51.328;7.322;2022-08-20T07:43:39;98829.13;;;22.30;78.53
21594;BME280;10959;51.328;7.322;2022-08-20T07:46:07;98840.94;;;22.40;78.32
21594;BME280;10959;51.328;7.322;2022-08-20T07:48:36;98838.91;;;22.42;77.95
21594;BME280;10959;51.328;7.322;2022-08-20T07:51:07;98840.81;;;22.41;78.27
21594;BME280;10959;51.328;7.322;2022-08-20T07:53:36;98841.75;;;22.50;78.33
21594;BME280;10959;51.328;7.322;2022-08-20T07:56:07;98842.50;;;22.52;77.79
21594;BME280;10959;51.328;7.322;2022-08-20T07:58:34;98850.69;;;22.62;78.02
21594;BME280;10959;51.328;7.322;2022-08-20T08:01:03;98853.28;;;22.64;78.22
21594;BME280;10959;51.328;7.322;2022-08-20T08:03:30;98840.25;;;22.66;77.82
21594;BME280;10959;51.328;7.322;2022-08-20T08:05:59;98852.09;;;22.66;77.04
21594;BME280;10959;51.328;7.322;2022-08-20T08:08:27;98848.91;;;22.71;76.89
21594;BME280;10959;51.328;7.322;2022-08-20T08:10:56;98856.38;;;22.78;77.25
21594;BME280;10959;51.328;7.322;2022-08-20T08:13:23;98847.66;;;22.83;77.04
21594;BME280;10959;51.328;7.322;2022-08-20T08:15:52;98854.56;;;22.87;77.17
21594;BME280;10959;51.328;7.322;2022-08-20T08:18:23;98852.25;;;22.92;76.42
21594;BME280;10959;51.328;7.322;2022-08-20T08:20:51;98864.03;;;23.03;76.47
21594;BME280;10959;51.328;7.322;2022-08-20T08:23:18;98858.13;;;22.98;77.04
21594;BME280;10959;51.328;7.322;2022-08-20T08:25:47;98856.72;;;22.93;76.63
21594;BME280;10959;51.328;7.322;2022-08-20T08:28:16;98856.72;;;22.93;76.84
21594;BME280;10959;51.328;7.322;2022-08-20T08:30:44;98854.84;;;22.94;77.29
21594;BME280;10959;51.328;7.322;2022-08-20T08:33:17;98854.09;;;22.92;76.83
21594;BME280;10959;51.328;7.322;2022-08-20T08:35:59;98861.69;;;23.08;76.99
21594;BME280;10959;51.328;7.322;2022-08-20T08:38:26;98859.34;;;23.13;76.76
21594;BME280;10959;51.328;7.322;2022-08-20T08:40:57;98848.06;;;23.16;75.93
21594;BME280;10959;51.328;7.322;2022-08-20T08:43:29;98852.63;;;23.25;76.05
21594;BME280;10959;51.328;7.322;2022-08-20T08:45:59;98854.97;;;23.20;75.89
21594;BME280;10959;51.328;7.322;2022-08-20T08:48:31;98850.34;;;23.21;75.76
21594;BME280;10959;51.328;7.322;2022-08-20T08:51:00;98857.81;;;23.28;76.12
21594;BME280;10959;51.328;7.322;2022-08-20T08:53:33;98852.72;;;23.34;75.56
21594;BME280;10959;51.328;7.322;2022-08-20T08:56:04;98862.06;;;23.41;76.16
21594;BME280;10959;51.328;7.322;2022-08-20T08:58:31;98858.75;;;23.55;75.62
21594;BME280;10959;51.328;7.322;2022-08-20T09:01:07;98869.09;;;23.61;75.66
21594;BME280;10959;51.328;7.322;2022-08-20T09:03:37;98873.25;;;23.47;74.86
21594;BME280;10959;51.328;7.322;2022-08-20T09:06:12;98869.91;;;23.36;75.39
21594;BME280;10959;51.328;7.322;2022-08-20T09:08:44;98882.13;;;23.23;75.84
21594;BME280;10959;51.328;7.322;2022-08-20T09:11:14;98879.88;;;23.09;77.05
21594;BME280;10959;51.328;7.322;2022-08-20T09:13:41;98882.47;;;23.10;77.73
21594;BME280;10959;51.328;7.322;2022-08-20T09:16:08;98879.06;;;23.44;78.34
21594;BME280;10959;51.328;7.322;2022-08-20T09:18:35;98883.00;;;23.42;78.56
21594;BME280;10959;51.328;7.322;2022-08-20T09:21:02;98881.59;;;23.56;77.07
21594;BME280;10959;51.328;7.322;2022-08-20T09:23:28;98878.84;;;23.38;77.00
21594;BME280;10959;51.328;7.322;2022-08-20T09:25:55;98879.19;;;23.07;77.88
21594;BME280;10959;51.328;7.322;2022-08-20T09:28:23;98891.53;;;22.93;78.65
21594;BME280;10959;51.328;7.322;2022-08-20T09:30:50;98886.09;;;22.83;78.78
21594;BME280;10959;51.328;7.322;2022-08-20T09:33:17;98882.97;;;22.78;78.70
21594;BME280;10959;51.328;7.322;2022-08-20T09:35:43;98886.41;;;22.80;78.69
21594;BME280;10959;51.328;7.322;2022-08-20T09:38:11;98888.41;;;22.88;79.07
21594;BME280;10959;51.328;7.322;2022-08-20T09:40:39;98888.75;;;22.75;79.39
21594;BME280;10959;51.328;7.322;2022-08-20T09:43:06;98896.78;;;22.86;79.65
21594;BME280;10959;51.328;7.322;2022-08-20T09:45:34;98889.88;;;22.82;78.77
21594;BME280;10959;51.328;7.322;2022-08-20T09:48:01;98895.59;;;22.61;78.80
21594;BME280;10959;51.328;7.322;2022-08-20T09:50:30;98897.47;;;22.60;78.55
21594;BME280;10959;51.328;7.322;2022-08-20T09:52:58;98900.94;;;22.63;79.15
21594;BME280;10959;51.328;7.322;2022-08-20T09:55:31;98891.97;;;22.60;79.14
21594;BME280;10959;51.328;7.322;2022-08-20T09:58:00;98899.13;;;22.81;79.20
21594;BME280;10959;51.328;7.322;2022-08-20T10:00:27;98898.13;;;22.82;79.33
21594;BME280;10959;51.328;7.322;2022-08-20T10:02:55;98905.44;;;22.91;79.22
21594;BME280;10959;51.328;7.322;2022-08-20T10:05:21;98896.19;;;22.92;78.67
21594;BME280;10959;51.328;7.322;2022-08-20T10:07:48;98901.97;;;22.89;78.51
21594;BME280;10959;51.328;7.322;2022-08-20T10:10:15;98906.44;;;22.90;77.99
21594;BME280;10959;51.328;7.322;2022-08-20T10:12:41;98912.75;;;23.01;77.16
21594;BME280;10959;51.328;7.322;2022-08-20T10:15:09;98904.44;;;23.10;76.82
21594;BME280;10959;51.328;7.322;2022-08-20T10:17:37;98917.94;;;23.32;76.23
21594;BME280;10959;51.328;7.322;2022-08-20T10:20:07;98908.78;;;23.41;75.88
21594;BME280;10959;51.328;7.322;2022-08-20T10:22:34;98903.75;;;23.72;75.07
21594;BME280;10959;51.328;7.322;2022-08-20T10:25:02;98909.66;;;23.95;74.62
21594;BME280;10959;51.328;7.322;2022-08-20T10:27:28;98914.97;;;23.79;74.95
21594;BME280;10959;51.328;7.322;2022-08-20T10:29:55;98912.53;;;23.76;74.00
21594;BME280;10959;51.328;7.322;2022-08-20T10:32:21;98913.88;;;23.72;74.02
21594;BME280;10959;51.328;7.322;2022-08-20T10:34:48;98911.84;;;23.74;73.12
21594;BME280;10959;51.328;7.322;2022-08-20T10:37:18;98915.13;;;23.77;73.25
21594;BME280;10959;51.328;7.322;2022-08-20T10:39:45;98914.97;;;23.79;72.99
21594;BME280;10959;51.328;7.322;2022-08-20T10:42:12;98922.47;;;23.87;72.53
21594;BME280;10959;51.328;7.322;2022-08-20T10:44:39;98926.84;;;23.97;72.21
21594;BME280;10959;51.328;7.322;2022-08-20T10:47:22;98927.06;;;23.86;72.70
21594;BME280;10959;51.328;7.322;2022-08-20T10:49:51;98923.22;;;24.15;71.71
21594;BME280;10959;51.328;7.322;2022-08-20T10:52:20;98911.75;;;24.54;71.52
21594;BME280;10959;51.328;7.322;2022-08-20T10:54:47;98925.63;;;24.71;70.57
21594;BME280;10959;51.328;7.322;2022-08-20T10:57:17;98923.59;;;24.73;70.56
21594;BME280;10959;51.328;7.322;2022-08-20T10:59:46;98928.53;;;24.95;70.00
21594;BME280;10959;51.328;7.322;2022-08-20T11:02:13;98925.84;;;25.20;69.33
21594;BME280;10959;51.328;7.322;2022-08-20T11:04:40;98922.50;;;25.43;68.30
21594;BME280;10959;51.328;7.322;2022-08-20T11:07:12;98922.72;;;25.15;68.13
21594;BME280;10959;51.328;7.322;2022-08-20T11:09:40;98934.75;;;25.06;68.11
21594;BME280;10959;51.328;7.322;2022-08-20T11:12:07;98933.31;;;24.85;68.34
21594;BME280;10959;51.328;7.322;2022-08-20T11:14:34;98931.00;;;24.72;68.72
21594;BME280;10959;51.328;7.322;2022-08-20T11:17:01;98934.56;;;24.64;68.11
21594;BME280;10959;51.328;7.322;2022-08-20T11:19:28;98927.56;;;24.52;68.48
21594;BME280;10959;51.328;7.322;2022-08-20T11:21:55;98932.00;;;24.45;68.46
21594;BME280;10959;51.328;7.322;2022-08-20T11:24:22;98925.03;;;24.59;69.10
21594;BME280;10959;51.328;7.322;2022-08-20T11:26:51;98939.06;;;24.65;68.28
21594;BME280;10959;51.328;7.322;2022-08-20T11:29:18;98937.94;;;24.58;67.38
21594;BME280;10959;51.328;7.322;2022-08-20T11:31:46;98937.47;;;24.97;67.76
21594;BME280;10959;51.328;7.322;2022-08-20T11:34:13;98936.19;;;25.26;67.37
21594;BME280;10959;51.328;7.322;2022-08-20T11:36:39;98931.50;;;25.53;67.37
21594;BME280;10959;51.328;7.322;2022-08-20T11:39:06;98931.88;;;25.83;66.30
21594;BME280;10959;51.328;7.322;2022-08-20T11:41:33;98943.31;;;26.13;65.10
21594;BME280;10959;51.328;7.322;2022-08-20T11:44:01;98937.06;;;26.19;64.18
21594;BME280;10959;51.328;7.322;2022-08-20T11:46:28;98939.84;;;26.11;63.92
21594;BME280;10959;51.328;7.322;2022-08-20T11:48:57;98942.94;;;26.08;63.97
21594;BME280;10959;51.328;7.322;2022-08-20T11:51:23;98937.06;;;25.94;63.91
21594;BME280;10959;51.328;7.322;2022-08-20T11:53:50;98944.66;;;25.84;64.39
21594;BME280;10959;51.328;7.322;2022-08-20T11:56:17;98953.44;;;25.79;64.00
21594;BME280;10959;51.328;7.322;2022-08-20T11:58:44;98943.94;;;25.65;63.87
21594;BME280;10959;51.328;7.322;2022-08-20T12:01:12;98942.16;;;25.56;64.02
21594;BME280;10959;51.328;7.322;2022-08-20T12:03:39;98949.75;;;25.54;64.00
21594;BME280;10959;51.328;7.322;2022-08-20T12:06:06;98947.31;;;25.43;63.82
21594;BME280;10959;51.328;7.322;2022-08-20T12:08:32;98949.22;;;25.50;64.43
21594;BME280;10959;51.328;7.322;2022-08-20T12:11:00;98942.53;;;25.53;63.87
21594;BME280;10959;51.328;7.322;2022-08-20T12:13:29;98947.03;;;25.79;63.65
21594;BME280;10959;51.328;7.322;2022-08-20T12:15:56;98949.16;;;26.10;62.65
21594;BME280;10959;51.328;7.322;2022-08-20T12:18:25;98940.53;;;26.21;62.30
21594;BME280;10959;51.328;7.322;2022-08-20T12:20:51;98946.75;;;26.31;61.81
21594;BME280;10959;51.328;7.322;2022-08-20T12:23:18;98945.69;;;26.41;61.16
21594;BME280;10959;51.328;7.322;2022-08-20T12:25:44;98941.72;;;26.35;60.78
21594;BME280;10959;51.328;7.322;2022-08-20T12:28:11;98946.41;;;26.18;61.07
21594;BME280;10959;51.328;7.322;2022-08-20T12:30:38;98944.69;;;26.17;60.33
21594;BME280;10959;51.328;7.322;2022-08-20T12:33:05;98946.41;;;26.18;60.58
21594;BME280;10959;51.328;7.322;2022-08-20T12:35:33;98936.03;;;26.12;60.95
21594;BME280;10959;51.328;7.322;2022-08-20T12:38:01;98935.53;;;26.25;60.15
21594;BME280;10959;51.328;7.322;2022-08-20T12:40:28;98940.19;;;26.32;58.49
21594;BME280;10959;51.328;7.322;2022-08-20T12:42:55;98932.94;;;26.39;59.34
21594;BME280;10959;51.328;7.322;2022-08-20T12:45:21;98928.63;;;26.37;59.35
21594;BME280;10959;51.328;7.322;2022-08-20T12:47:48;98930.13;;;26.48;59.62
21594;BME280;10959;51.328;7.322;2022-08-20T12:50:18;98934.09;;;26.53;59.44
21594;BME280;10959;51.328;7.322;2022-08-20T12:52:47;98924.94;;;26.61;58.64
21594;BME280;10959;51.328;7.322;2022-08-20T12:55:16;98932.53;;;26.59;56.68
21594;BME280;10959;51.328;7.322;2022-08-20T12:57:45;98927.72;;;26.45;58.26
21594;BME280;10959;51.328;7.322;2022-08-20T13:00:14;98931.19;;;26.30;58.60
21594;BME280;10959;51.328;7.322;2022-08-20T13:02:41;98927.75;;;26.36;59.00
21594;BME280;10959;51.328;7.322;2022-08-20T13:05:09;98924.66;;;26.31;58.58
21594;BME280;10959;51.328;7.322;2022-08-20T13:07:37;98919.84;;;26.25;56.57